MOL Explorer — 3EKT8 — position and weather

sailwx.info

Track history (hours):
 
Tides and Currents Weather Stations Pressure Air Temp Water Temp Dewpoint Dewpoint Depression Visibility Wind Speed Wind Dir Waves Ship Positions

MOL Explorer

Last reported at 2015-Feb-15 00:19 UTC. Time now 2015-Mar-06 11:07 UTC.
Position N 34°50' E 139°48'.
Warning: this ship's position is 19 days out of date.

Length 293 m; draft 11.9 m.

Type: Ship (hazmat cat A). MMSI: 372827000.

Date/timePositionNaut miles runAvg speedWind from/ knotsBaromVisibWave heightAir tempDewpointWater temp
2015-Feb-15 00:19N 34°50' E 139°48'912.1
2015-Feb-14 23:33N 34°56' E 139°40'1212.3
2015-Feb-14 22:33N 35°08' E 139°44'1111.4
2015-Feb-14 21:33N 35°19' E 139°43'1312.7
2015-Feb-14 20:33N 35°30' E 139°51'8 7.7
2015-Feb-14 19:34N 35°36' E 139°46'0 0.0
2015-Feb-14 18:31N 35°36' E 139°46'0 0.0
2015-Feb-14 17:25N 35°36' E 139°46'0 0.0
2015-Feb-14 16:25N 35°36' E 139°46'0 0.0
2015-Feb-14 15:31N 35°36' E 139°46'0 0.0
2015-Feb-14 14:19N 35°36' E 139°46'0 0.0
2015-Feb-14 13:16N 35°36' E 139°46'0 0.0
2015-Feb-14 12:31N 35°36' E 139°46'0 0.0
2015-Feb-14 11:31N 35°36' E 139°46'0 0.0
2015-Feb-14 10:25N 35°36' E 139°46'0 0.1
2015-Feb-14 09:33N 35°36' E 139°46'5 3.6
2015-Feb-14 08:15N 35°35' E 139°52'0 0.1
2015-Feb-14 07:33N 35°35' E 139°52'0 0.1
2015-Feb-14 06:33N 35°35' E 139°52'0 0.2
2015-Feb-14 05:33N 35°34' E 139°52'0 0.0
2015-Feb-14 03:33N 35°34' E 139°52'0 0.0
2015-Feb-14 02:24N 35°34' E 139°52'0 0.1
2015-Feb-14 01:15N 35°34' E 139°52'0 0.0
2015-Feb-14 00:33N 35°34' E 139°52'0 0.1
2015-Feb-13 23:30N 35°34' E 139°52'0 0.0
2015-Feb-13 22:33N 35°34' E 139°52'0 0.0
2015-Feb-13 21:33N 35°34' E 139°52'0 0.0
2015-Feb-13 20:33N 35°34' E 139°52'0 0.1
2015-Feb-13 19:33N 35°34' E 139°52'5 5.2
2015-Feb-13 18:33N 35°29' E 139°52'1312.6
2015-Feb-13 17:34N 35°18' E 139°45'1110.8
2015-Feb-13 16:34N 35°07' E 139°46'1111.4
2015-Feb-13 15:33N 34°57' E 139°42'  
2015-Feb-11 09:33N 33°54' E 134°56'1818.2
2015-Feb-11 08:33N 34°12' E 134°57'1515.2
2015-Feb-11 07:33N 34°26' E 135°05'1615.8
2015-Feb-11 06:33N 34°39' E 135°16'1 1.1
2015-Feb-11 05:32N 34°39' E 135°15'0 0.0
2015-Feb-11 04:32N 34°39' E 135°15'0 0.0
2015-Feb-11 03:20N 34°39' E 135°15'0 0.0
2015-Feb-11 02:32N 34°39' E 135°15'0 0.0
2015-Feb-11 01:32N 34°39' E 135°15'0 0.0
2015-Feb-11 00:26N 34°39' E 135°15'0 0.0
2015-Feb-10 23:32N 34°39' E 135°15'0 0.0
2015-Feb-10 22:32N 34°39' E 135°15'0 0.0
2015-Feb-10 21:32N 34°39' E 135°15'0 0.0
2015-Feb-10 20:32N 34°39' E 135°15'0 0.0
2015-Feb-10 19:32N 34°39' E 135°15'0 0.0
2015-Feb-10 18:32N 34°39' E 135°15'0 0.0
2015-Feb-10 17:32N 34°39' E 135°15'0 0.0
2015-Feb-10 16:32N 34°39' E 135°15'0 0.0
2015-Feb-10 15:32N 34°39' E 135°15'0 0.0
2015-Feb-10 14:26N 34°39' E 135°15'0 0.0
2015-Feb-10 13:32N 34°39' E 135°15'0 0.0
2015-Feb-10 12:32N 34°39' E 135°15'0 0.0
2015-Feb-10 11:26N 34°39' E 135°15'0 0.0
2015-Feb-10 10:32N 34°39' E 135°15'0 0.0
2015-Feb-10 09:32N 34°39' E 135°15'0 0.0
2015-Feb-10 08:32N 34°39' E 135°15'0 0.0
2015-Feb-10 07:32N 34°39' E 135°15'0 0.0
2015-Feb-10 06:27N 34°39' E 135°15'5 5.4
2015-Feb-10 05:33N 34°35' E 135°16'1616.4
2015-Feb-10 04:33N 34°22' E 135°04'1413.9
2015-Feb-10 03:32N 34°08' E 135°00'1616.3
2015-Feb-10 02:33N 33°52' E 134°58'23816.6
2015-Feb-09 12:12N 34°50' E 139°38'1319.8
2015-Feb-09 11:33N 35°02' E 139°42'1413.6
2015-Feb-09 10:33N 35°16' E 139°46'1111.5
2015-Feb-09 09:33N 35°27' E 139°47'9 8.2
2015-Feb-09 08:26N 35°36' E 139°46'0 0.0
2015-Feb-09 06:08N 35°36' E 139°46'0 0.0
2015-Feb-09 05:23N 35°36' E 139°46'0 0.0
2015-Feb-09 04:32N 35°36' E 139°46'0 0.0
2015-Feb-09 03:32N 35°36' E 139°46'0 0.0
2015-Feb-09 02:26N 35°36' E 139°46'0 0.0
2015-Feb-09 00:11N 35°36' E 139°46'0 0.0
2015-Feb-08 23:26N 35°36' E 139°46'1 0.9
2015-Feb-08 22:33N 35°36' E 139°47'8 8.2
2015-Feb-08 21:33N 35°29' E 139°52'1212.0
2015-Feb-08 20:33N 35°19' E 139°44'1110.9
2015-Feb-08 19:33N 35°08' E 139°46'1211.6
2015-Feb-08 18:33N 34°58' E 139°41'2411.6
2015-Feb-08 16:28N 34°55' E 140°10'  
Track history (hours):
 
Tides and Currents Weather Stations Pressure Air Temp Water Temp Dewpoint Dewpoint Depression Visibility Wind Speed Wind Dir Waves Ship Positions

MOL Explorer

Last reported at 2015-Feb-15 00:19 UTC. Time now 2015-Mar-06 11:07 UTC.
Position N 34°50' E 139°48'.
Warning: this ship's position is 19 days out of date.

Length 293 m; draft 11.9 m.

Type: Ship (hazmat cat A). MMSI: 372827000.

Date/timePositionNaut miles runAvg speedWind from/ knotsBaromVisibWave heightAir tempDewpointWater temp
2015-Feb-15 00:19N 34°50' E 139°48'912.1
2015-Feb-14 23:33N 34°56' E 139°40'1212.3
2015-Feb-14 22:33N 35°08' E 139°44'1111.4
2015-Feb-14 21:33N 35°19' E 139°43'1312.7
2015-Feb-14 20:33N 35°30' E 139°51'8 7.7
2015-Feb-14 19:34N 35°36' E 139°46'0 0.0
2015-Feb-14 18:31N 35°36' E 139°46'0 0.0
2015-Feb-14 17:25N 35°36' E 139°46'0 0.0
2015-Feb-14 16:25N 35°36' E 139°46'0 0.0
2015-Feb-14 15:31N 35°36' E 139°46'0 0.0
2015-Feb-14 14:19N 35°36' E 139°46'0 0.0
2015-Feb-14 13:16N 35°36' E 139°46'0 0.0
2015-Feb-14 12:31N 35°36' E 139°46'0 0.0
2015-Feb-14 11:31N 35°36' E 139°46'0 0.0
2015-Feb-14 10:25N 35°36' E 139°46'0 0.1
2015-Feb-14 09:33N 35°36' E 139°46'5 3.6
2015-Feb-14 08:15N 35°35' E 139°52'0 0.1
2015-Feb-14 07:33N 35°35' E 139°52'0 0.1
2015-Feb-14 06:33N 35°35' E 139°52'0 0.2
2015-Feb-14 05:33N 35°34' E 139°52'0 0.0
2015-Feb-14 03:33N 35°34' E 139°52'0 0.0
2015-Feb-14 02:24N 35°34' E 139°52'0 0.1
2015-Feb-14 01:15N 35°34' E 139°52'0 0.0
2015-Feb-14 00:33N 35°34' E 139°52'0 0.1
2015-Feb-13 23:30N 35°34' E 139°52'0 0.0
2015-Feb-13 22:33N 35°34' E 139°52'0 0.0
2015-Feb-13 21:33N 35°34' E 139°52'0 0.0
2015-Feb-13 20:33N 35°34' E 139°52'0 0.1
2015-Feb-13 19:33N 35°34' E 139°52'5 5.2
2015-Feb-13 18:33N 35°29' E 139°52'1312.6
2015-Feb-13 17:34N 35°18' E 139°45'1110.8
2015-Feb-13 16:34N 35°07' E 139°46'1111.4
2015-Feb-13 15:33N 34°57' E 139°42'  
2015-Feb-11 09:33N 33°54' E 134°56'1818.2
2015-Feb-11 08:33N 34°12' E 134°57'1515.2
2015-Feb-11 07:33N 34°26' E 135°05'1615.8
2015-Feb-11 06:33N 34°39' E 135°16'1 1.1
2015-Feb-11 05:32N 34°39' E 135°15'0 0.0
2015-Feb-11 04:32N 34°39' E 135°15'0 0.0
2015-Feb-11 03:20N 34°39' E 135°15'0 0.0
2015-Feb-11 02:32N 34°39' E 135°15'0 0.0
2015-Feb-11 01:32N 34°39' E 135°15'0 0.0
2015-Feb-11 00:26N 34°39' E 135°15'0 0.0
2015-Feb-10 23:32N 34°39' E 135°15'0 0.0
2015-Feb-10 22:32N 34°39' E 135°15'0 0.0
2015-Feb-10 21:32N 34°39' E 135°15'0 0.0
2015-Feb-10 20:32N 34°39' E 135°15'0 0.0
2015-Feb-10 19:32N 34°39' E 135°15'0 0.0
2015-Feb-10 18:32N 34°39' E 135°15'0 0.0
2015-Feb-10 17:32N 34°39' E 135°15'0 0.0
2015-Feb-10 16:32N 34°39' E 135°15'0 0.0
2015-Feb-10 15:32N 34°39' E 135°15'0 0.0
2015-Feb-10 14:26N 34°39' E 135°15'0 0.0
2015-Feb-10 13:32N 34°39' E 135°15'0 0.0
2015-Feb-10 12:32N 34°39' E 135°15'0 0.0
2015-Feb-10 11:26N 34°39' E 135°15'0 0.0
2015-Feb-10 10:32N 34°39' E 135°15'0 0.0
2015-Feb-10 09:32N 34°39' E 135°15'0 0.0
2015-Feb-10 08:32N 34°39' E 135°15'0 0.0
2015-Feb-10 07:32N 34°39' E 135°15'0 0.0
2015-Feb-10 06:27N 34°39' E 135°15'5 5.4
2015-Feb-10 05:33N 34°35' E 135°16'1616.4
2015-Feb-10 04:33N 34°22' E 135°04'1413.9
2015-Feb-10 03:32N 34°08' E 135°00'1616.3
2015-Feb-10 02:33N 33°52' E 134°58'23816.6
2015-Feb-09 12:12N 34°50' E 139°38'1319.8
2015-Feb-09 11:33N 35°02' E 139°42'1413.6
2015-Feb-09 10:33N 35°16' E 139°46'1111.5
2015-Feb-09 09:33N 35°27' E 139°47'9 8.2
2015-Feb-09 08:26N 35°36' E 139°46'0 0.0
2015-Feb-09 06:08N 35°36' E 139°46'0 0.0
2015-Feb-09 05:23N 35°36' E 139°46'0 0.0
2015-Feb-09 04:32N 35°36' E 139°46'0 0.0
2015-Feb-09 03:32N 35°36' E 139°46'0 0.0
2015-Feb-09 02:26N 35°36' E 139°46'0 0.0
2015-Feb-09 00:11N 35°36' E 139°46'0 0.0
2015-Feb-08 23:26N 35°36' E 139°46'1 0.9
2015-Feb-08 22:33N 35°36' E 139°47'8 8.2
2015-Feb-08 21:33N 35°29' E 139°52'1212.0
2015-Feb-08 20:33N 35°19' E 139°44'1110.9
2015-Feb-08 19:33N 35°08' E 139°46'1211.6
2015-Feb-08 18:33N 34°58' E 139°41'2411.6
2015-Feb-08 16:28N 34°55' E 140°10'  

Dump ship's entire track history